createdAt,value
2023-04-18T00:00:44.291Z,497.00
2023-04-18T00:01:44.447Z,498.00
2023-04-18T00:02:44.533Z,497.00
2023-04-18T00:03:44.560Z,495.00
2023-04-18T00:04:44.550Z,495.00
2023-04-18T00:05:44.554Z,493.00
2023-04-18T00:06:44.577Z,494.00
2023-04-18T00:07:44.624Z,494.00
2023-04-18T00:08:44.645Z,491.00
2023-04-18T00:09:44.836Z,490.00
2023-04-18T00:10:44.802Z,490.00
2023-04-18T00:11:44.791Z,489.00
2023-04-18T00:12:44.850Z,489.00
2023-04-18T00:13:44.871Z,489.00
2023-04-18T00:14:44.942Z,490.00
2023-04-18T00:15:44.957Z,490.00
2023-04-18T00:16:45.083Z,491.00
2023-04-18T00:17:45.108Z,492.00
2023-04-18T00:18:45.112Z,490.00
2023-04-18T00:19:45.154Z,489.00
2023-04-18T00:20:45.184Z,490.00
2023-04-18T00:21:45.332Z,489.00
2023-04-18T00:22:45.288Z,489.00
2023-04-18T00:23:45.332Z,488.00
2023-04-18T00:24:45.378Z,488.00
2023-04-18T00:25:45.452Z,488.00
2023-04-18T00:26:45.471Z,489.00
2023-04-18T00:27:45.528Z,489.00
2023-04-18T00:28:45.586Z,491.00
2023-04-18T00:29:45.628Z,493.00
2023-04-18T00:30:45.743Z,493.00
2023-04-18T00:31:45.709Z,494.00
2023-04-18T00:32:45.819Z,496.00
2023-04-18T00:33:45.802Z,495.00
2023-04-18T00:34:45.863Z,494.00
2023-04-18T00:35:45.933Z,492.00
2023-04-18T00:36:45.965Z,492.00
2023-04-18T00:37:46.016Z,491.00
2023-04-18T00:38:46.051Z,491.00
2023-04-18T00:39:46.125Z,493.00
2023-04-18T00:40:46.138Z,493.00
2023-04-18T00:41:46.205Z,494.00
2023-04-18T00:42:46.278Z,497.00
2023-04-18T00:43:46.287Z,498.00
2023-04-18T00:44:46.349Z,498.00
2023-04-18T00:45:46.439Z,500.00
2023-04-18T00:46:46.447Z,502.00
2023-04-18T00:47:46.505Z,504.00
2023-04-18T00:48:46.548Z,505.00
2023-04-18T00:49:46.618Z,505.00
2023-04-18T00:50:46.696Z,506.00
2023-04-18T00:51:46.691Z,506.00
2023-04-18T00:52:46.769Z,504.00
2023-04-18T00:53:46.835Z,504.00
2023-04-18T00:54:46.862Z,501.00
2023-04-18T00:55:46.912Z,500.00
2023-04-18T00:56:46.945Z,502.00
2023-04-18T00:57:47.010Z,498.00
2023-04-18T00:58:47.028Z,495.00
2023-04-18T00:59:47.097Z,494.00
2023-04-18T01:00:47.151Z,492.00
2023-04-18T01:01:47.219Z,490.00
2023-04-18T01:02:47.374Z,488.00
2023-04-18T01:03:47.374Z,489.00
2023-04-18T01:04:47.345Z,489.00
2023-04-18T01:05:47.391Z,490.00
2023-04-18T01:06:47.441Z,489.00
2023-04-18T01:07:47.492Z,492.00
2023-04-18T01:08:47.528Z,493.00
2023-04-18T01:09:47.594Z,494.00
2023-04-18T01:10:47.646Z,493.00
2023-04-18T01:11:47.685Z,493.00
2023-04-18T01:12:47.738Z,495.00
2023-04-18T01:13:47.765Z,494.00
2023-04-18T01:14:47.826Z,496.00
2023-04-18T01:15:47.929Z,495.00
2023-04-18T01:16:47.947Z,493.00
2023-04-18T01:17:48.037Z,492.00
2023-04-18T01:18:48.032Z,492.00
2023-04-18T01:19:48.076Z,493.00
2023-04-18T01:20:48.120Z,493.00
2023-04-18T01:21:48.175Z,494.00
2023-04-18T01:22:48.216Z,493.00
2023-04-18T01:23:48.266Z,493.00
2023-04-18T01:24:48.343Z,494.00
2023-04-18T01:25:48.410Z,492.00
2023-04-18T01:26:48.442Z,491.00
2023-04-18T01:27:48.478Z,490.00
2023-04-18T01:28:48.505Z,489.00
2023-04-18T01:29:48.571Z,489.00
2023-04-18T01:30:48.620Z,491.00
2023-04-18T01:31:48.721Z,491.00
2023-04-18T01:32:48.748Z,490.00
2023-04-18T01:33:48.766Z,489.00
2023-04-18T01:34:48.810Z,488.00
2023-04-18T01:35:48.854Z,490.00
2023-04-18T01:36:48.921Z,489.00
2023-04-18T01:37:48.963Z,488.00
2023-04-18T01:38:49.016Z,489.00
2023-04-18T01:39:49.076Z,490.00
2023-04-18T01:40:49.125Z,488.00
2023-04-18T01:41:49.168Z,488.00
2023-04-18T01:42:49.212Z,490.00
2023-04-18T01:43:49.274Z,489.00
2023-04-18T01:44:49.331Z,489.00
2023-04-18T01:45:49.377Z,488.00
2023-04-18T01:46:49.446Z,490.00
2023-04-18T01:47:49.557Z,490.00
2023-04-18T01:48:49.526Z,490.00
2023-04-18T01:49:49.588Z,491.00
2023-04-18T01:50:49.633Z,492.00
2023-04-18T01:51:49.668Z,491.00
2023-04-18T01:52:49.732Z,491.00
2023-04-18T01:53:49.779Z,490.00
2023-04-18T01:54:49.824Z,491.00
2023-04-18T01:55:49.884Z,491.00
2023-04-18T01:56:49.935Z,492.00
2023-04-18T01:57:50.044Z,492.00
2023-04-18T01:58:50.685Z,492.00
2023-04-18T01:59:50.076Z,494.00
2023-04-18T02:00:50.160Z,497.00
2023-04-18T02:01:50.230Z,494.00
2023-04-18T02:02:50.359Z,493.00
2023-04-18T02:03:50.610Z,495.00
2023-04-18T02:04:50.386Z,493.00
2023-04-18T02:05:50.397Z,493.00
2023-04-18T02:06:50.473Z,491.00
2023-04-18T02:07:50.500Z,490.00
2023-04-18T02:08:50.566Z,491.00
2023-04-18T02:09:50.582Z,491.00
2023-04-18T02:10:50.693Z,492.00
2023-04-18T02:11:50.699Z,494.00
2023-04-18T02:12:50.745Z,493.00
2023-04-18T02:13:50.798Z,493.00
2023-04-18T02:14:50.821Z,492.00
2023-04-18T02:15:50.891Z,490.00
2023-04-18T02:16:51.101Z,490.00
2023-04-18T02:17:51.004Z,492.00
2023-04-18T02:18:51.065Z,493.00
2023-04-18T02:19:51.077Z,493.00
2023-04-18T02:20:51.142Z,494.00
2023-04-18T02:21:51.213Z,495.00
2023-04-18T02:22:51.257Z,496.00
2023-04-18T02:23:51.274Z,495.00
2023-04-18T02:24:51.353Z,494.00
2023-04-18T02:25:51.433Z,495.00
2023-04-18T02:26:51.476Z,494.00
2023-04-18T02:27:51.477Z,495.00
2023-04-18T02:28:51.524Z,495.00
2023-04-18T02:29:51.655Z,496.00
2023-04-18T02:30:51.680Z,495.00
2023-04-18T02:31:51.734Z,495.00
2023-04-18T02:32:51.771Z,494.00
2023-04-18T02:33:51.767Z,493.00
2023-04-18T02:34:51.825Z,493.00
2023-04-18T02:35:51.882Z,492.00
2023-04-18T02:36:51.931Z,492.00
2023-04-18T02:37:51.970Z,494.00
2023-04-18T02:38:52.017Z,495.00
2023-04-18T02:39:52.056Z,494.00
2023-04-18T02:40:52.156Z,494.00
2023-04-18T02:41:52.182Z,493.00
2023-04-18T02:42:52.223Z,494.00
2023-04-18T02:43:52.279Z,496.00
2023-04-18T02:44:52.346Z,495.00
2023-04-18T02:45:52.385Z,497.00
2023-04-18T02:46:52.423Z,499.00
2023-04-18T02:47:55.896Z,499.00
2023-04-18T02:48:52.469Z,496.00
2023-04-18T02:49:52.484Z,496.00
2023-04-18T02:50:52.467Z,495.00
2023-04-18T02:51:52.442Z,493.00
2023-04-18T02:52:52.465Z,493.00
2023-04-18T02:53:52.442Z,492.00
2023-04-18T02:54:52.442Z,492.00
2023-04-18T02:55:52.415Z,492.00
2023-04-18T02:56:52.428Z,493.00
2023-04-18T02:57:52.418Z,493.00
2023-04-18T02:58:52.429Z,492.00
2023-04-18T02:59:52.433Z,492.00
2023-04-18T03:00:52.478Z,492.00
2023-04-18T03:01:52.478Z,491.00
2023-04-18T03:02:52.428Z,492.00
2023-04-18T03:03:52.363Z,491.00
2023-04-18T03:04:52.395Z,490.00
2023-04-18T03:05:52.354Z,491.00
2023-04-18T03:06:52.361Z,492.00
2023-04-18T03:07:52.347Z,494.00
2023-04-18T03:08:52.348Z,496.00
2023-04-18T03:09:52.338Z,496.00
2023-04-18T03:10:52.790Z,494.00
2023-04-18T03:11:52.322Z,494.00
2023-04-18T03:12:52.348Z,491.00
2023-04-18T03:13:52.399Z,491.00
2023-04-18T03:14:52.439Z,492.00
2023-04-18T03:15:52.537Z,494.00
2023-04-18T03:16:55.177Z,497.00
2023-04-18T03:17:52.609Z,499.00
2023-04-18T03:18:52.535Z,499.00
2023-04-18T03:19:52.532Z,497.00
2023-04-18T03:20:52.504Z,494.00
2023-04-18T03:21:52.518Z,495.00
2023-04-18T03:22:52.511Z,496.00
2023-04-18T03:23:52.486Z,497.00
2023-04-18T03:24:52.499Z,497.00
2023-04-18T03:25:52.481Z,498.00
2023-04-18T03:26:52.473Z,499.00
2023-04-18T03:27:52.475Z,497.00
2023-04-18T03:28:52.457Z,496.00
2023-04-18T03:29:52.468Z,495.00
2023-04-18T03:30:52.481Z,495.00
2023-04-18T03:31:52.445Z,496.00
2023-04-18T03:32:52.480Z,496.00
2023-04-18T03:33:52.437Z,497.00
2023-04-18T03:34:52.429Z,495.00
2023-04-18T03:35:52.400Z,496.00
2023-04-18T03:36:52.426Z,496.00
2023-04-18T03:37:52.412Z,494.00
2023-04-18T03:38:52.396Z,494.00
2023-04-18T03:39:52.413Z,495.00
2023-04-18T03:40:52.389Z,495.00
2023-04-18T03:41:52.415Z,494.00
2023-04-18T03:42:52.378Z,495.00
2023-04-18T03:43:52.363Z,497.00
2023-04-18T03:44:52.366Z,499.00
2023-04-18T03:45:52.351Z,501.00
2023-04-18T03:46:52.340Z,503.00
2023-04-18T03:47:52.400Z,503.00
2023-04-18T03:48:52.325Z,504.00
2023-04-18T03:49:52.347Z,502.00
2023-04-18T03:50:52.315Z,501.00
2023-04-18T03:51:52.315Z,502.00
2023-04-18T03:52:52.314Z,500.00
2023-04-18T03:53:52.302Z,502.00
2023-04-18T03:54:52.285Z,498.00
2023-04-18T03:55:52.292Z,497.00
2023-04-18T03:56:52.290Z,496.00
2023-04-18T03:57:52.302Z,497.00
2023-04-18T03:58:52.293Z,497.00
2023-04-18T03:59:52.343Z,499.00
2023-04-18T04:00:52.379Z,500.00
2023-04-18T04:01:52.561Z,500.00
2023-04-18T04:02:52.749Z,499.00
2023-04-18T04:03:52.754Z,498.00
2023-04-18T04:04:52.723Z,494.00
2023-04-18T04:05:52.704Z,493.00
2023-04-18T04:06:52.697Z,494.00
2023-04-18T04:07:52.777Z,492.00
2023-04-18T04:08:52.797Z,493.00
2023-04-18T04:09:52.847Z,495.00
2023-04-18T04:10:52.908Z,497.00
2023-04-18T04:11:52.966Z,496.00
2023-04-18T04:12:52.995Z,495.00
2023-04-18T04:13:53.041Z,497.00
2023-04-18T04:14:53.090Z,497.00
2023-04-18T04:15:53.217Z,499.00
2023-04-18T04:16:53.294Z,498.00
2023-04-18T04:17:53.267Z,498.00
2023-04-18T04:18:53.292Z,498.00
2023-04-18T04:19:53.348Z,499.00
2023-04-18T04:20:53.432Z,501.00
2023-04-18T04:21:53.482Z,500.00
2023-04-18T04:22:53.529Z,502.00
2023-04-18T04:23:53.549Z,500.00
2023-04-18T04:24:53.627Z,501.00
2023-04-18T04:25:53.679Z,502.00
2023-04-18T04:26:53.743Z,503.00
2023-04-18T04:27:53.792Z,500.00
2023-04-18T04:28:53.823Z,500.00
2023-04-18T04:29:53.872Z,500.00
2023-04-18T04:30:53.921Z,500.00
2023-04-18T04:31:54.006Z,500.00
2023-04-18T04:32:54.029Z,499.00
2023-04-18T04:33:54.073Z,501.00
2023-04-18T04:34:54.110Z,501.00
2023-04-18T04:35:54.174Z,502.00
2023-04-18T04:36:54.207Z,500.00
2023-04-18T04:37:54.272Z,498.00
2023-04-18T04:38:54.317Z,498.00
2023-04-18T04:39:54.365Z,496.00
2023-04-18T04:40:54.428Z,497.00
2023-04-18T04:41:54.478Z,497.00
2023-04-18T04:42:54.542Z,495.00
2023-04-18T04:43:54.581Z,496.00
2023-04-18T04:44:54.702Z,497.00
2023-04-18T04:45:54.711Z,496.00
2023-04-18T04:46:54.735Z,497.00
2023-04-18T04:47:54.815Z,499.00
2023-04-18T04:48:54.808Z,500.00
2023-04-18T04:49:54.885Z,501.00
2023-04-18T04:50:54.956Z,501.00
2023-04-18T04:51:54.985Z,501.00
2023-04-18T04:52:55.015Z,500.00
2023-04-18T04:53:55.084Z,499.00
2023-04-18T04:54:55.151Z,498.00
2023-04-18T04:55:55.178Z,496.00
2023-04-18T04:56:55.225Z,498.00
2023-04-18T04:57:55.275Z,499.00
2023-04-18T04:58:55.332Z,500.00
2023-04-18T04:59:55.379Z,501.00
2023-04-18T05:00:55.446Z,501.00
2023-04-18T05:01:55.529Z,503.00
2023-04-18T05:02:55.706Z,501.00
2023-04-18T05:03:55.746Z,503.00
2023-04-18T05:04:55.666Z,503.00
2023-04-18T05:05:55.673Z,501.00
2023-04-18T05:06:55.741Z,501.00
2023-04-18T05:07:55.795Z,502.00
2023-04-18T05:08:55.849Z,501.00
2023-04-18T05:09:55.894Z,501.00
2023-04-18T05:10:55.937Z,500.00
2023-04-18T05:11:55.992Z,503.00
2023-04-18T05:12:56.059Z,511.00
2023-04-18T05:13:56.093Z,520.00
2023-04-18T05:14:56.133Z,524.00
2023-04-18T05:15:56.189Z,521.00
2023-04-18T05:16:56.299Z,519.00
2023-04-18T05:17:56.329Z,520.00
2023-04-18T05:18:56.362Z,519.00
2023-04-18T05:19:56.387Z,519.00
2023-04-18T05:20:56.421Z,516.00
2023-04-18T05:21:56.462Z,518.00
2023-04-18T05:22:56.522Z,518.00
2023-04-18T05:23:56.574Z,517.00
2023-04-18T05:24:56.625Z,516.00
2023-04-18T05:25:56.637Z,517.00
2023-04-18T05:26:56.701Z,519.00
2023-04-18T05:27:56.735Z,519.00
2023-04-18T05:28:56.764Z,525.00
2023-04-18T05:29:56.845Z,582.00
2023-04-18T05:30:56.907Z,598.00
2023-04-18T05:31:56.921Z,591.00
2023-04-18T05:32:57.003Z,611.00
2023-04-18T05:33:56.994Z,620.00
2023-04-18T05:34:57.025Z,616.00
2023-04-18T05:35:57.033Z,636.00
2023-04-18T05:36:57.067Z,652.00
2023-04-18T05:37:57.083Z,687.00
2023-04-18T05:38:57.150Z,694.00
2023-04-18T05:39:59.305Z,712.00
2023-04-18T05:40:57.163Z,782.00
2023-04-18T05:41:57.121Z,802.00
2023-04-18T05:42:57.182Z,823.00
2023-04-18T05:44:05.001Z,838.00
2023-04-18T05:44:58.111Z,856.00
2023-04-18T05:45:57.946Z,865.00
2023-04-18T05:46:57.077Z,875.00
2023-04-18T05:47:57.161Z,889.00
2023-04-18T05:48:57.077Z,905.00
2023-04-18T05:49:57.127Z,929.00
2023-04-18T05:50:57.094Z,946.00
2023-04-18T05:51:57.048Z,956.00
2023-04-18T05:52:57.078Z,970.00
2023-04-18T05:53:57.071Z,979.00
2023-04-18T05:54:57.258Z,990.00
2023-04-18T05:55:57.128Z,1001.00
2023-04-18T05:56:57.235Z,1009.00
2023-04-18T05:57:57.360Z,1017.00
2023-04-18T05:58:57.374Z,1025.00
2023-04-18T05:59:57.433Z,1031.00
2023-04-18T06:00:57.402Z,1032.00
2023-04-18T06:01:57.470Z,1041.00
2023-04-18T06:02:57.919Z,1053.00
2023-04-18T06:03:57.635Z,1068.00
2023-04-18T06:04:57.635Z,1070.00
2023-04-18T06:05:57.754Z,1068.00
2023-04-18T06:06:57.581Z,1066.00
2023-04-18T06:07:57.819Z,1067.00
2023-04-18T06:08:57.730Z,1069.00
2023-04-18T06:09:57.763Z,1071.00
2023-04-18T06:10:57.811Z,880.00
2023-04-18T06:11:57.864Z,753.00
2023-04-18T06:12:57.893Z,765.00
2023-04-18T06:13:58.298Z,680.00
2023-04-18T06:14:58.001Z,715.00
2023-04-18T06:15:57.991Z,927.00
2023-04-18T06:16:57.996Z,925.00
2023-04-18T06:17:58.053Z,920.00
2023-04-18T06:19:00.359Z,928.00
2023-04-18T06:19:58.046Z,938.00
2023-04-18T06:20:58.019Z,948.00
2023-04-18T06:21:57.974Z,960.00
2023-04-18T06:22:57.962Z,975.00
2023-04-18T06:23:57.965Z,987.00
2023-04-18T06:24:57.978Z,998.00
2023-04-18T06:25:57.954Z,1009.00
2023-04-18T06:26:57.953Z,1021.00
2023-04-18T06:27:57.936Z,1031.00
2023-04-18T06:28:57.942Z,1038.00
2023-04-18T06:29:57.970Z,1043.00
2023-04-18T06:30:57.910Z,1040.00
2023-04-18T06:31:58.074Z,951.00
2023-04-18T06:32:59.886Z,1015.00
2023-04-18T06:33:57.906Z,1023.00
2023-04-18T06:34:57.901Z,1037.00
2023-04-18T06:35:57.889Z,1044.00
2023-04-18T06:36:57.844Z,1091.00
2023-04-18T06:37:57.869Z,1099.00
2023-04-18T06:38:57.832Z,1113.00
2023-04-18T06:39:57.872Z,1123.00
2023-04-18T06:40:57.908Z,1130.00
2023-04-18T06:41:57.994Z,1133.00
2023-04-18T06:42:58.077Z,1140.00
2023-04-18T06:44:58.303Z,1148.00
2023-04-18T06:45:58.074Z,1149.00
2023-04-18T06:46:58.062Z,1152.00
2023-04-18T06:47:58.069Z,1154.00
2023-04-18T06:48:58.084Z,1152.00
2023-04-18T06:49:58.047Z,1154.00
2023-04-18T06:50:58.012Z,1157.00
2023-04-18T06:51:58.031Z,1162.00
2023-04-18T06:52:58.007Z,1165.00
2023-04-18T06:53:58.014Z,1166.00
2023-04-18T06:54:58.025Z,1163.00
2023-04-18T06:55:57.979Z,1160.00
2023-04-18T06:56:57.998Z,1158.00
2023-04-18T06:57:58.023Z,1149.00
2023-04-18T06:58:58.299Z,1147.00
2023-04-18T06:59:57.980Z,1154.00
2023-04-18T07:00:57.999Z,1158.00
2023-04-18T07:01:57.993Z,1158.00
2023-04-18T07:02:58.138Z,1149.00
2023-04-18T07:03:58.354Z,1140.00
2023-04-18T07:04:57.938Z,1137.00
2023-04-18T07:05:57.900Z,1134.00
2023-04-18T07:06:57.922Z,1129.00
2023-04-18T07:07:57.900Z,1127.00
2023-04-18T07:08:57.927Z,1123.00
2023-04-18T07:09:57.888Z,1120.00
2023-04-18T07:10:58.323Z,1128.00
2023-04-18T07:11:57.939Z,1129.00
2023-04-18T07:12:57.869Z,1128.00
2023-04-18T07:13:57.852Z,1128.00
2023-04-18T07:14:57.891Z,1130.00
2023-04-18T07:15:57.822Z,1131.00
2023-04-18T07:16:57.885Z,1132.00
2023-04-18T07:17:57.898Z,1132.00
2023-04-18T07:18:57.827Z,1137.00
2023-04-18T07:19:57.815Z,1142.00
2023-04-18T07:20:57.817Z,1145.00
2023-04-18T07:21:57.785Z,1139.00
2023-04-18T07:22:57.800Z,1133.00
2023-04-18T07:23:57.802Z,1142.00
2023-04-18T07:24:57.770Z,1142.00
2023-04-18T07:25:57.744Z,1136.00
2023-04-18T07:26:57.757Z,1135.00
2023-04-18T07:27:57.757Z,1141.00
2023-04-18T07:28:57.750Z,1146.00
2023-04-18T07:29:57.740Z,1003.00
2023-04-18T07:30:57.910Z,966.00
2023-04-18T07:31:57.723Z,955.00
2023-04-18T07:32:57.787Z,966.00
2023-04-18T07:33:58.105Z,976.00
2023-04-18T07:34:57.796Z,990.00
2023-04-18T07:35:57.813Z,1004.00
2023-04-18T07:36:57.817Z,1008.00
2023-04-18T07:37:57.855Z,1014.00
2023-04-18T07:38:57.878Z,1022.00
2023-04-18T07:39:57.907Z,1034.00
2023-04-18T07:40:58.298Z,1048.00
2023-04-18T07:41:57.894Z,1068.00
2023-04-18T07:42:57.883Z,1115.00
2023-04-18T07:43:58.333Z,1126.00
2023-04-18T07:44:57.909Z,1123.00
2023-04-18T07:45:57.966Z,1121.00
2023-04-18T07:46:57.935Z,1125.00
2023-04-18T07:47:58.070Z,1125.00
2023-04-18T07:48:58.305Z,1122.00
2023-04-18T07:49:58.140Z,1126.00
2023-04-18T07:50:58.165Z,1128.00
2023-04-18T07:51:58.226Z,1133.00
2023-04-18T07:52:58.340Z,1139.00
2023-04-18T07:53:58.340Z,1148.00
2023-04-18T07:54:58.387Z,1152.00
2023-04-18T07:55:58.411Z,1147.00
2023-04-18T07:56:58.475Z,1154.00
2023-04-18T07:57:58.503Z,1159.00
2023-04-18T07:58:58.530Z,1165.00
2023-04-18T07:59:58.693Z,1162.00
2023-04-18T08:00:58.634Z,1157.00
2023-04-18T08:01:58.749Z,1155.00
2023-04-18T08:02:58.887Z,1152.00
2023-04-18T08:03:58.891Z,1151.00
2023-04-18T08:04:58.915Z,1146.00
2023-04-18T08:05:58.994Z,1141.00
2023-04-18T08:06:58.965Z,1140.00
2023-04-18T08:07:59.018Z,1136.00
2023-04-18T08:08:59.112Z,1132.00
2023-04-18T08:09:59.163Z,1132.00
2023-04-18T08:10:59.182Z,1129.00
2023-04-18T08:11:59.251Z,1124.00
2023-04-18T08:12:59.301Z,1128.00
2023-04-18T08:13:59.344Z,1127.00
2023-04-18T08:14:59.849Z,1121.00
2023-04-18T08:15:59.505Z,1116.00
2023-04-18T08:16:59.501Z,1118.00
2023-04-18T08:17:59.499Z,1110.00
2023-04-18T08:18:59.538Z,1118.00
2023-04-18T08:19:59.831Z,1124.00
2023-04-18T08:20:59.846Z,1125.00
2023-04-18T08:21:59.620Z,1122.00
2023-04-18T08:23:59.676Z,1101.00
2023-04-18T08:25:05.153Z,1097.00
2023-04-18T08:26:00.676Z,1095.00
2023-04-18T08:26:59.680Z,1091.00
2023-04-18T08:27:59.652Z,1084.00
2023-04-18T08:28:59.678Z,1075.00
2023-04-18T08:29:59.950Z,1060.00
2023-04-18T08:30:59.667Z,1039.00
2023-04-18T08:31:59.714Z,1027.00
2023-04-18T08:32:59.669Z,1017.00
2023-04-18T08:33:59.644Z,1003.00
2023-04-18T08:34:59.598Z,991.00
2023-04-18T08:35:59.599Z,909.00
2023-04-18T08:36:59.567Z,915.00
2023-04-18T08:37:59.752Z,929.00
2023-04-18T08:38:59.570Z,1031.00
2023-04-18T08:39:59.576Z,1022.00
2023-04-18T08:40:59.558Z,1037.00
2023-04-18T08:41:59.566Z,1110.00
2023-04-18T08:42:59.526Z,1125.00
2023-04-18T08:43:59.577Z,1128.00
2023-04-18T08:44:59.522Z,1129.00
2023-04-18T08:45:59.551Z,1134.00
2023-04-18T08:46:59.490Z,1135.00
2023-04-18T08:47:59.596Z,1139.00
2023-04-18T08:48:59.479Z,1140.00
2023-04-18T08:49:59.498Z,1142.00
2023-04-18T08:50:59.462Z,1144.00
2023-04-18T08:51:59.484Z,1147.00
2023-04-18T08:52:59.470Z,1144.00
2023-04-18T08:53:59.507Z,1144.00
2023-04-18T08:54:59.499Z,1140.00
2023-04-18T08:56:00.372Z,1138.00
2023-04-18T08:56:59.487Z,1138.00
2023-04-18T08:57:59.536Z,1141.00
2023-04-18T08:58:59.516Z,1141.00
2023-04-18T08:59:59.592Z,1144.00
2023-04-18T09:00:59.615Z,1145.00
2023-04-18T09:01:59.648Z,1145.00
2023-04-18T09:02:59.670Z,1147.00
2023-04-18T09:03:59.640Z,1153.00
2023-04-18T09:04:59.659Z,1158.00
2023-04-18T09:05:59.831Z,1162.00
2023-04-18T09:06:59.682Z,1167.00
2023-04-18T09:07:59.721Z,1167.00
2023-04-18T09:08:59.742Z,1164.00
2023-04-18T09:09:59.814Z,1161.00
2023-04-18T09:10:59.846Z,1163.00
2023-04-18T09:11:59.791Z,1169.00
2023-04-18T09:12:59.796Z,1175.00
2023-04-18T09:13:59.811Z,1181.00
2023-04-18T09:14:59.889Z,1187.00
2023-04-18T09:16:00.340Z,1190.00
2023-04-18T09:17:00.009Z,1192.00
2023-04-18T09:18:00.060Z,1196.00
2023-04-18T09:18:59.906Z,1201.00
2023-04-18T09:19:59.984Z,1204.00
2023-04-18T09:20:59.994Z,1206.00
2023-04-18T09:22:00.055Z,1209.00
2023-04-18T09:23:00.060Z,1213.00
2023-04-18T09:24:00.125Z,1219.00
2023-04-18T09:25:00.348Z,1221.00
2023-04-18T09:26:00.293Z,1221.00
2023-04-18T09:27:00.154Z,1220.00
2023-04-18T09:28:00.186Z,1131.00
2023-04-18T09:29:00.173Z,1018.00
2023-04-18T09:30:00.354Z,986.00
2023-04-18T09:31:00.268Z,880.00
2023-04-18T09:32:00.235Z,828.00
2023-04-18T09:33:00.891Z,841.00
2023-04-18T09:34:00.249Z,799.00
2023-04-18T09:35:01.961Z,827.00
2023-04-18T09:36:00.364Z,825.00
2023-04-18T09:37:00.293Z,839.00
2023-04-18T09:38:00.268Z,907.00
2023-04-18T09:39:00.251Z,946.00
2023-04-18T09:40:00.234Z,968.00
2023-04-18T09:41:00.261Z,978.00
2023-04-18T09:42:00.267Z,1008.00
2023-04-18T09:43:00.241Z,1022.00
2023-04-18T09:44:00.200Z,1036.00
2023-04-18T09:45:00.252Z,1048.00
2023-04-18T09:46:00.235Z,1059.00
2023-04-18T09:47:00.219Z,1070.00
2023-04-18T09:48:00.230Z,1072.00
2023-04-18T09:49:00.189Z,1075.00
2023-04-18T09:50:00.164Z,1077.00
2023-04-18T09:51:00.192Z,1086.00
2023-04-18T09:52:00.365Z,1091.00
2023-04-18T09:53:00.151Z,1093.00
2023-04-18T09:54:00.175Z,1093.00
2023-04-18T09:55:00.185Z,1092.00
2023-04-18T09:56:00.139Z,1095.00
2023-04-18T09:57:00.120Z,1097.00
2023-04-18T09:58:00.141Z,1100.00
2023-04-18T09:59:00.120Z,1101.00
2023-04-18T10:00:00.164Z,1101.00
2023-04-18T10:01:00.378Z,1097.00
2023-04-18T10:02:00.153Z,1098.00
2023-04-18T10:03:00.243Z,1096.00
2023-04-18T10:04:00.208Z,1100.00
2023-04-18T10:05:00.278Z,1101.00
2023-04-18T10:06:00.063Z,1101.00
2023-04-18T10:07:00.053Z,1101.00
2023-04-18T10:08:00.051Z,1102.00
2023-04-18T10:09:00.028Z,1105.00
2023-04-18T10:10:00.028Z,1107.00
2023-04-18T10:11:00.072Z,1113.00
2023-04-18T10:12:00.012Z,1115.00
2023-04-18T10:13:00.049Z,1117.00
2023-04-18T10:14:00.004Z,1126.00
2023-04-18T10:14:59.960Z,1128.00
2023-04-18T10:15:59.985Z,1134.00
2023-04-18T10:16:59.980Z,1137.00
2023-04-18T10:18:05.207Z,1139.00
2023-04-18T10:19:00.948Z,1134.00
2023-04-18T10:19:59.958Z,1138.00
2023-04-18T10:20:59.964Z,1121.00
2023-04-18T10:22:00.367Z,984.00
2023-04-18T10:22:59.932Z,838.00
2023-04-18T10:23:59.931Z,829.00
2023-04-18T10:24:59.906Z,793.00
2023-04-18T10:25:59.901Z,754.00
2023-04-18T10:27:00.375Z,754.00
2023-04-18T10:27:59.942Z,770.00
2023-04-18T10:28:59.878Z,779.00
2023-04-18T10:29:59.861Z,807.00
2023-04-18T10:30:59.922Z,826.00
2023-04-18T10:32:00.047Z,841.00
2023-04-18T10:32:59.885Z,864.00
2023-04-18T10:34:18.284Z,897.00
2023-04-18T10:35:00.858Z,917.00
2023-04-18T10:35:59.903Z,963.00
2023-04-18T10:36:59.841Z,960.00
2023-04-18T10:37:59.862Z,965.00
2023-04-18T10:38:59.845Z,980.00
2023-04-18T10:39:59.820Z,994.00
2023-04-18T10:40:59.919Z,1008.00
2023-04-18T10:41:59.826Z,1031.00
2023-04-18T10:42:59.830Z,1049.00
2023-04-18T10:43:59.811Z,1060.00
2023-04-18T10:44:59.789Z,1064.00
2023-04-18T10:46:00.006Z,1074.00
2023-04-18T10:46:59.815Z,1075.00
2023-04-18T10:47:59.846Z,1080.00
2023-04-18T10:48:59.756Z,1083.00
2023-04-18T10:49:59.856Z,1088.00
2023-04-18T10:50:59.879Z,1097.00
2023-04-18T10:51:59.939Z,1099.00
2023-04-18T10:52:59.998Z,1100.00
2023-04-18T10:54:00.066Z,1104.00
2023-04-18T10:55:00.783Z,1104.00
2023-04-18T10:56:00.175Z,1105.00
2023-04-18T10:57:00.200Z,1110.00
2023-04-18T10:58:00.267Z,1120.00
2023-04-18T10:59:00.327Z,1124.00
2023-04-18T11:00:00.377Z,1130.00
2023-04-18T11:01:00.527Z,1133.00
2023-04-18T11:02:00.583Z,1134.00
2023-04-18T11:03:00.721Z,1131.00
2023-04-18T11:04:00.840Z,1131.00
2023-04-18T11:05:00.659Z,1126.00
2023-04-18T11:06:00.678Z,1124.00
2023-04-18T11:07:00.729Z,1127.00
2023-04-18T11:08:00.772Z,1126.00
2023-04-18T11:09:00.869Z,1125.00
2023-04-18T11:10:00.887Z,1121.00
2023-04-18T11:11:01.441Z,1114.00
2023-04-18T11:12:01.405Z,904.00
2023-04-18T11:13:01.047Z,795.00
2023-04-18T11:14:01.084Z,736.00
2023-04-18T11:15:01.107Z,711.00
2023-04-18T11:16:01.426Z,674.00
2023-04-18T11:17:01.233Z,589.00
2023-04-18T11:18:01.212Z,577.00
2023-04-18T11:19:01.199Z,569.00
2023-04-18T11:20:01.220Z,562.00
2023-04-18T11:21:01.297Z,536.00
2023-04-18T11:22:01.419Z,527.00
2023-04-18T11:23:01.365Z,519.00
2023-04-18T11:24:01.457Z,512.00
2023-04-18T11:25:01.461Z,510.00
2023-04-18T11:26:01.499Z,504.00
2023-04-18T11:27:01.482Z,501.00
2023-04-18T11:28:01.511Z,500.00
2023-04-18T11:29:01.518Z,493.00
2023-04-18T11:30:01.601Z,494.00
2023-04-18T11:31:01.611Z,495.00
2023-04-18T11:32:01.621Z,492.00
2023-04-18T11:33:01.592Z,491.00
2023-04-18T11:34:01.722Z,489.00
2023-04-18T11:35:01.736Z,487.00
2023-04-18T11:36:01.788Z,485.00
2023-04-18T11:37:01.765Z,488.00
2023-04-18T11:38:01.778Z,488.00
2023-04-18T11:39:01.777Z,494.00
2023-04-18T11:40:01.827Z,499.00
2023-04-18T11:41:01.876Z,503.00
2023-04-18T11:42:01.869Z,505.00
2023-04-18T11:43:01.876Z,505.00
2023-04-18T11:44:01.917Z,506.00
2023-04-18T11:45:01.934Z,506.00
2023-04-18T11:46:02.065Z,506.00
2023-04-18T11:47:01.966Z,500.00
2023-04-18T11:48:02.042Z,497.00
2023-04-18T11:49:02.061Z,497.00
2023-04-18T11:50:02.126Z,496.00
2023-04-18T11:51:02.146Z,498.00
2023-04-18T11:52:02.209Z,500.00
2023-04-18T11:53:02.249Z,500.00
2023-04-18T11:54:02.308Z,500.00
2023-04-18T11:55:02.311Z,499.00
2023-04-18T11:56:02.365Z,498.00
2023-04-18T11:57:02.437Z,500.00
2023-04-18T11:58:02.428Z,503.00
2023-04-18T11:59:02.491Z,504.00
2023-04-18T12:00:02.461Z,503.00
2023-04-18T12:01:02.495Z,503.00
2023-04-18T12:02:14.427Z,505.00
2023-04-18T12:03:03.626Z,505.00
2023-04-18T12:04:03.751Z,506.00
2023-04-18T12:05:02.708Z,508.00
2023-04-18T12:06:02.598Z,508.00
2023-04-18T12:07:02.916Z,510.00
2023-04-18T12:08:02.483Z,511.00
2023-04-18T12:09:02.478Z,512.00
2023-04-18T12:10:02.491Z,513.00
2023-04-18T12:11:02.475Z,513.00
2023-04-18T12:12:02.457Z,514.00
2023-04-18T12:13:02.455Z,512.00
2023-04-18T12:14:04.115Z,515.00
2023-04-18T12:15:02.480Z,515.00
2023-04-18T12:16:02.514Z,516.00
2023-04-18T12:17:02.414Z,609.00
2023-04-18T12:18:02.485Z,547.00
2023-04-18T12:19:02.406Z,537.00
2023-04-18T12:20:02.418Z,524.00
2023-04-18T12:21:02.387Z,514.00
2023-04-18T12:22:02.481Z,522.00
2023-04-18T12:23:02.357Z,523.00